sensor_id;sensor_type;location;lat;lon;timestamp;P1;durP1;ratioP1;P2;durP2;ratioP2
3993;SDS011;2011;48.238;13.948;2022-10-16T00:00:44;130.67;;;27.13;;
3993;SDS011;2011;48.238;13.948;2022-10-16T00:03:11;37.70;;;20.83;;
3993;SDS011;2011;48.238;13.948;2022-10-16T00:05:39;44.07;;;20.83;;
3993;SDS011;2011;48.238;13.948;2022-10-16T00:08:07;70.70;;;22.90;;
3993;SDS011;2011;48.238;13.948;2022-10-16T00:10:37;87.53;;;24.13;;
3993;SDS011;2011;48.238;13.948;2022-10-16T00:13:04;90.90;;;23.90;;
3993;SDS011;2011;48.238;13.948;2022-10-16T00:15:32;50.37;;;21.53;;
3993;SDS011;2011;48.238;13.948;2022-10-16T00:18:01;51.17;;;20.00;;
3993;SDS011;2011;48.238;13.948;2022-10-16T00:20:28;36.23;;;20.37;;
3993;SDS011;2011;48.238;13.948;2022-10-16T00:22:56;53.17;;;23.87;;
3993;SDS011;2011;48.238;13.948;2022-10-16T00:25:23;59.30;;;19.00;;
3993;SDS011;2011;48.238;13.948;2022-10-16T00:27:52;171.17;;;17.17;;
3993;SDS011;2011;48.238;13.948;2022-10-16T00:30:19;59.50;;;15.93;;
3993;SDS011;2011;48.238;13.948;2022-10-16T00:32:46;42.20;;;15.80;;
3993;SDS011;2011;48.238;13.948;2022-10-16T00:35:13;38.37;;;14.30;;
3993;SDS011;2011;48.238;13.948;2022-10-16T00:37:40;192.30;;;21.10;;
3993;SDS011;2011;48.238;13.948;2022-10-16T00:40:07;66.53;;;16.97;;
3993;SDS011;2011;48.238;13.948;2022-10-16T00:42:34;26.50;;;14.80;;
3993;SDS011;2011;48.238;13.948;2022-10-16T00:45:03;25.20;;;15.10;;
3993;SDS011;2011;48.238;13.948;2022-10-16T00:47:32;67.03;;;16.07;;
3993;SDS011;2011;48.238;13.948;2022-10-16T00:50:04;239.30;;;27.80;;
3993;SDS011;2011;48.238;13.948;2022-10-16T00:52:35;169.13;;;22.60;;
3993;SDS011;2011;48.238;13.948;2022-10-16T00:55:06;34.87;;;17.87;;
3993;SDS011;2011;48.238;13.948;2022-10-16T00:57:35;30.17;;;17.73;;
3993;SDS011;2011;48.238;13.948;2022-10-16T01:00:04;95.63;;;18.80;;
3993;SDS011;2011;48.238;13.948;2022-10-16T01:02:34;230.60;;;22.63;;
3993;SDS011;2011;48.238;13.948;2022-10-16T01:05:01;228.73;;;24.10;;
3993;SDS011;2011;48.238;13.948;2022-10-16T01:07:31;111.97;;;20.60;;
3993;SDS011;2011;48.238;13.948;2022-10-16T01:10:07;61.77;;;19.30;;
3993;SDS011;2011;48.238;13.948;2022-10-16T01:12:44;38.77;;;18.30;;
3993;SDS011;2011;48.238;13.948;2022-10-16T01:15:17;97.33;;;21.37;;
3993;SDS011;2011;48.238;13.948;2022-10-16T01:17:51;71.77;;;17.13;;
3993;SDS011;2011;48.238;13.948;2022-10-16T01:20:25;222.97;;;21.00;;
3993;SDS011;2011;48.238;13.948;2022-10-16T01:23:04;92.60;;;19.57;;
3993;SDS011;2011;48.238;13.948;2022-10-16T01:25:46;97.10;;;21.17;;
3993;SDS011;2011;48.238;13.948;2022-10-16T01:28:24;54.00;;;19.60;;
3993;SDS011;2011;48.238;13.948;2022-10-16T01:30:58;33.60;;;17.27;;
3993;SDS011;2011;48.238;13.948;2022-10-16T01:33:27;91.47;;;22.63;;
3993;SDS011;2011;48.238;13.948;2022-10-16T01:36:02;186.77;;;26.03;;
3993;SDS011;2011;48.238;13.948;2022-10-16T01:38:34;64.87;;;22.57;;
3993;SDS011;2011;48.238;13.948;2022-10-16T01:41:04;120.27;;;22.60;;
3993;SDS011;2011;48.238;13.948;2022-10-16T01:43:37;155.93;;;26.87;;
3993;SDS011;2011;48.238;13.948;2022-10-16T01:46:08;107.13;;;20.80;;
3993;SDS011;2011;48.238;13.948;2022-10-16T01:48:36;41.13;;;18.30;;
3993;SDS011;2011;48.238;13.948;2022-10-16T01:51:05;38.53;;;18.20;;
3993;SDS011;2011;48.238;13.948;2022-10-16T01:53:35;40.77;;;17.40;;
3993;SDS011;2011;48.238;13.948;2022-10-16T01:56:03;128.57;;;22.83;;
3993;SDS011;2011;48.238;13.948;2022-10-16T01:58:34;253.33;;;34.33;;
3993;SDS011;2011;48.238;13.948;2022-10-16T02:01:06;325.63;;;36.33;;
3993;SDS011;2011;48.238;13.948;2022-10-16T02:03:36;342.73;;;36.23;;
3993;SDS011;2011;48.238;13.948;2022-10-16T02:06:06;59.07;;;20.47;;
3993;SDS011;2011;48.238;13.948;2022-10-16T02:08:34;103.07;;;20.50;;
3993;SDS011;2011;48.238;13.948;2022-10-16T02:11:02;33.77;;;17.07;;
3993;SDS011;2011;48.238;13.948;2022-10-16T02:13:29;68.30;;;18.70;;
3993;SDS011;2011;48.238;13.948;2022-10-16T02:16:01;97.17;;;19.20;;
3993;SDS011;2011;48.238;13.948;2022-10-16T02:18:29;69.20;;;17.57;;
3993;SDS011;2011;48.238;13.948;2022-10-16T02:20:57;80.47;;;17.23;;
3993;SDS011;2011;48.238;13.948;2022-10-16T02:23:29;62.03;;;16.53;;
3993;SDS011;2011;48.238;13.948;2022-10-16T02:26:02;32.80;;;16.63;;
3993;SDS011;2011;48.238;13.948;2022-10-16T02:28:34;25.50;;;15.00;;
3993;SDS011;2011;48.238;13.948;2022-10-16T02:31:08;33.53;;;15.50;;
3993;SDS011;2011;48.238;13.948;2022-10-16T02:33:37;60.30;;;15.53;;
3993;SDS011;2011;48.238;13.948;2022-10-16T02:36:06;96.60;;;19.60;;
3993;SDS011;2011;48.238;13.948;2022-10-16T02:38:34;74.87;;;17.93;;
3993;SDS011;2011;48.238;13.948;2022-10-16T02:41:01;107.07;;;17.27;;
3993;SDS011;2011;48.238;13.948;2022-10-16T02:43:30;34.97;;;13.27;;
3993;SDS011;2011;48.238;13.948;2022-10-16T02:45:58;110.87;;;18.30;;
3993;SDS011;2011;48.238;13.948;2022-10-16T02:48:27;78.80;;;17.43;;
3993;SDS011;2011;48.238;13.948;2022-10-16T02:50:54;47.67;;;15.47;;
3993;SDS011;2011;48.238;13.948;2022-10-16T02:53:22;50.57;;;15.10;;
3993;SDS011;2011;48.238;13.948;2022-10-16T02:55:49;32.53;;;14.70;;
3993;SDS011;2011;48.238;13.948;2022-10-16T02:58:16;57.37;;;15.87;;
3993;SDS011;2011;48.238;13.948;2022-10-16T03:00:43;76.13;;;18.27;;
3993;SDS011;2011;48.238;13.948;2022-10-16T03:03:11;118.93;;;17.73;;
3993;SDS011;2011;48.238;13.948;2022-10-16T03:05:39;48.70;;;14.80;;
3993;SDS011;2011;48.238;13.948;2022-10-16T03:08:06;52.23;;;15.37;;
3993;SDS011;2011;48.238;13.948;2022-10-16T03:10:33;93.03;;;14.13;;
3993;SDS011;2011;48.238;13.948;2022-10-16T03:13:00;23.67;;;13.40;;
3993;SDS011;2011;48.238;13.948;2022-10-16T03:15:27;98.70;;;14.43;;
3993;SDS011;2011;48.238;13.948;2022-10-16T03:17:54;59.13;;;14.37;;
3993;SDS011;2011;48.238;13.948;2022-10-16T03:20:23;74.07;;;14.70;;
3993;SDS011;2011;48.238;13.948;2022-10-16T03:22:52;77.87;;;12.93;;
3993;SDS011;2011;48.238;13.948;2022-10-16T03:25:19;50.47;;;13.13;;
3993;SDS011;2011;48.238;13.948;2022-10-16T03:27:46;46.30;;;11.73;;
3993;SDS011;2011;48.238;13.948;2022-10-16T03:30:13;333.63;;;20.07;;
3993;SDS011;2011;48.238;13.948;2022-10-16T03:32:40;222.60;;;18.03;;
3993;SDS011;2011;48.238;13.948;2022-10-16T03:35:07;117.33;;;14.40;;
3993;SDS011;2011;48.238;13.948;2022-10-16T03:37:34;136.33;;;17.27;;
3993;SDS011;2011;48.238;13.948;2022-10-16T03:40:03;53.43;;;13.87;;
3993;SDS011;2011;48.238;13.948;2022-10-16T03:42:31;111.00;;;14.60;;
3993;SDS011;2011;48.238;13.948;2022-10-16T03:44:58;138.93;;;16.30;;
3993;SDS011;2011;48.238;13.948;2022-10-16T03:47:25;72.07;;;12.70;;
3993;SDS011;2011;48.238;13.948;2022-10-16T03:49:52;59.57;;;12.97;;
3993;SDS011;2011;48.238;13.948;2022-10-16T03:52:19;37.27;;;12.47;;
3993;SDS011;2011;48.238;13.948;2022-10-16T03:54:46;80.17;;;11.80;;
3993;SDS011;2011;48.238;13.948;2022-10-16T03:57:15;110.50;;;13.97;;
3993;SDS011;2011;48.238;13.948;2022-10-16T03:59:42;53.40;;;11.50;;
3993;SDS011;2011;48.238;13.948;2022-10-16T04:02:09;40.57;;;12.27;;
3993;SDS011;2011;48.238;13.948;2022-10-16T04:04:36;92.80;;;12.97;;
3993;SDS011;2011;48.238;13.948;2022-10-16T04:07:03;88.63;;;13.50;;
3993;SDS011;2011;48.238;13.948;2022-10-16T04:09:30;19.37;;;12.50;;
3993;SDS011;2011;48.238;13.948;2022-10-16T04:11:57;31.27;;;12.97;;
3993;SDS011;2011;48.238;13.948;2022-10-16T04:14:26;105.87;;;17.83;;
3993;SDS011;2011;48.238;13.948;2022-10-16T04:16:53;70.07;;;12.23;;
3993;SDS011;2011;48.238;13.948;2022-10-16T04:19:20;46.93;;;14.30;;
3993;SDS011;2011;48.238;13.948;2022-10-16T04:21:47;47.87;;;13.93;;
3993;SDS011;2011;48.238;13.948;2022-10-16T04:24:14;47.80;;;13.17;;
3993;SDS011;2011;48.238;13.948;2022-10-16T04:26:41;47.83;;;15.90;;
3993;SDS011;2011;48.238;13.948;2022-10-16T04:29:08;23.33;;;12.70;;
3993;SDS011;2011;48.238;13.948;2022-10-16T04:31:36;213.67;;;20.00;;
3993;SDS011;2011;48.238;13.948;2022-10-16T04:34:03;64.57;;;14.73;;
3993;SDS011;2011;48.238;13.948;2022-10-16T04:36:30;44.10;;;12.77;;
3993;SDS011;2011;48.238;13.948;2022-10-16T04:38:57;42.47;;;12.83;;
3993;SDS011;2011;48.238;13.948;2022-10-16T04:41:25;50.67;;;12.90;;
3993;SDS011;2011;48.238;13.948;2022-10-16T04:43:52;72.80;;;15.00;;
3993;SDS011;2011;48.238;13.948;2022-10-16T04:46:19;94.27;;;16.10;;
3993;SDS011;2011;48.238;13.948;2022-10-16T04:48:47;204.77;;;19.73;;
3993;SDS011;2011;48.238;13.948;2022-10-16T04:51:14;97.93;;;18.90;;
3993;SDS011;2011;48.238;13.948;2022-10-16T04:53:41;26.87;;;12.90;;
3993;SDS011;2011;48.238;13.948;2022-10-16T04:56:08;23.27;;;11.90;;
3993;SDS011;2011;48.238;13.948;2022-10-16T04:58:35;33.00;;;12.60;;
3993;SDS011;2011;48.238;13.948;2022-10-16T05:01:02;65.30;;;19.50;;
3993;SDS011;2011;48.238;13.948;2022-10-16T05:03:30;109.47;;;14.40;;
3993;SDS011;2011;48.238;13.948;2022-10-16T05:05:58;267.53;;;31.13;;
3993;SDS011;2011;48.238;13.948;2022-10-16T05:08:25;48.90;;;11.70;;
3993;SDS011;2011;48.238;13.948;2022-10-16T05:10:52;58.87;;;15.17;;
3993;SDS011;2011;48.238;13.948;2022-10-16T05:13:19;115.83;;;15.80;;
3993;SDS011;2011;48.238;13.948;2022-10-16T05:15:46;91.23;;;19.20;;
3993;SDS011;2011;48.238;13.948;2022-10-16T05:18:14;67.33;;;12.60;;
3993;SDS011;2011;48.238;13.948;2022-10-16T05:20:41;39.33;;;11.53;;
3993;SDS011;2011;48.238;13.948;2022-10-16T05:23:10;42.33;;;11.20;;
3993;SDS011;2011;48.238;13.948;2022-10-16T05:25:37;102.87;;;14.63;;
3993;SDS011;2011;48.238;13.948;2022-10-16T05:28:04;77.37;;;14.00;;
3993;SDS011;2011;48.238;13.948;2022-10-16T05:30:31;252.47;;;19.83;;
3993;SDS011;2011;48.238;13.948;2022-10-16T05:32:58;309.53;;;27.73;;
3993;SDS011;2011;48.238;13.948;2022-10-16T05:35:24;337.40;;;23.87;;
3993;SDS011;2011;48.238;13.948;2022-10-16T05:37:52;61.23;;;14.27;;
3993;SDS011;2011;48.238;13.948;2022-10-16T05:40:20;26.17;;;11.03;;
3993;SDS011;2011;48.238;13.948;2022-10-16T05:42:47;174.20;;;17.13;;
3993;SDS011;2011;48.238;13.948;2022-10-16T05:45:14;39.80;;;11.43;;
3993;SDS011;2011;48.238;13.948;2022-10-16T05:47:41;41.53;;;12.07;;
3993;SDS011;2011;48.238;13.948;2022-10-16T05:50:08;65.70;;;9.47;;
3993;SDS011;2011;48.238;13.948;2022-10-16T05:52:35;251.63;;;19.83;;
3993;SDS011;2011;48.238;13.948;2022-10-16T05:55:02;193.80;;;15.17;;
3993;SDS011;2011;48.238;13.948;2022-10-16T05:57:31;104.57;;;13.73;;
3993;SDS011;2011;48.238;13.948;2022-10-16T05:59:58;29.63;;;8.33;;
3993;SDS011;2011;48.238;13.948;2022-10-16T06:02:25;8.63;;;6.80;;
3993;SDS011;2011;48.238;13.948;2022-10-16T06:04:52;50.67;;;8.80;;
3993;SDS011;2011;48.238;13.948;2022-10-16T06:07:19;27.33;;;8.57;;
3993;SDS011;2011;48.238;13.948;2022-10-16T06:09:47;42.00;;;9.37;;
3993;SDS011;2011;48.238;13.948;2022-10-16T06:12:14;55.00;;;9.93;;
3993;SDS011;2011;48.238;13.948;2022-10-16T06:14:43;101.93;;;10.37;;
3993;SDS011;2011;48.238;13.948;2022-10-16T06:17:11;32.07;;;8.87;;
3993;SDS011;2011;48.238;13.948;2022-10-16T06:19:38;86.07;;;11.27;;
3993;SDS011;2011;48.238;13.948;2022-10-16T06:22:06;43.60;;;9.23;;
3993;SDS011;2011;48.238;13.948;2022-10-16T06:24:33;58.90;;;10.20;;
3993;SDS011;2011;48.238;13.948;2022-10-16T06:27:00;420.30;;;23.23;;
3993;SDS011;2011;48.238;13.948;2022-10-16T06:29:26;120.23;;;13.83;;
3993;SDS011;2011;48.238;13.948;2022-10-16T06:31:55;281.80;;;23.83;;
3993;SDS011;2011;48.238;13.948;2022-10-16T06:34:22;45.93;;;9.80;;
3993;SDS011;2011;48.238;13.948;2022-10-16T06:36:49;48.43;;;10.10;;
3993;SDS011;2011;48.238;13.948;2022-10-16T06:39:16;37.70;;;8.50;;
3993;SDS011;2011;48.238;13.948;2022-10-16T06:41:42;103.27;;;10.73;;
3993;SDS011;2011;48.238;13.948;2022-10-16T06:44:09;71.53;;;10.03;;
3993;SDS011;2011;48.238;13.948;2022-10-16T06:46:36;351.93;;;19.17;;
3993;SDS011;2011;48.238;13.948;2022-10-16T06:49:04;358.23;;;21.00;;
3993;SDS011;2011;48.238;13.948;2022-10-16T06:51:31;152.73;;;11.63;;
3993;SDS011;2011;48.238;13.948;2022-10-16T06:54:00;146.20;;;9.87;;
3993;SDS011;2011;48.238;13.948;2022-10-16T06:56:27;148.73;;;11.33;;
3993;SDS011;2011;48.238;13.948;2022-10-16T06:58:55;258.80;;;16.73;;
3993;SDS011;2011;48.238;13.948;2022-10-16T07:01:23;188.13;;;10.07;;
3993;SDS011;2011;48.238;13.948;2022-10-16T07:03:52;208.20;;;12.67;;
3993;SDS011;2011;48.238;13.948;2022-10-16T07:06:21;495.60;;;34.90;;
3993;SDS011;2011;48.238;13.948;2022-10-16T07:08:49;192.37;;;12.50;;
3993;SDS011;2011;48.238;13.948;2022-10-16T07:11:17;219.37;;;13.23;;
3993;SDS011;2011;48.238;13.948;2022-10-16T07:13:45;60.73;;;8.00;;
3993;SDS011;2011;48.238;13.948;2022-10-16T07:16:13;247.33;;;14.33;;
3993;SDS011;2011;48.238;13.948;2022-10-16T07:18:42;281.43;;;14.30;;
3993;SDS011;2011;48.238;13.948;2022-10-16T07:21:11;132.47;;;10.17;;
3993;SDS011;2011;48.238;13.948;2022-10-16T07:23:41;127.13;;;13.10;;
3993;SDS011;2011;48.238;13.948;2022-10-16T07:26:08;278.33;;;18.40;;
3993;SDS011;2011;48.238;13.948;2022-10-16T07:28:36;213.23;;;15.27;;
3993;SDS011;2011;48.238;13.948;2022-10-16T07:31:05;59.30;;;9.57;;
3993;SDS011;2011;48.238;13.948;2022-10-16T07:33:33;317.90;;;17.27;;
3993;SDS011;2011;48.238;13.948;2022-10-16T07:36:01;109.03;;;9.60;;
3993;SDS011;2011;48.238;13.948;2022-10-16T07:38:28;59.73;;;10.30;;
3993;SDS011;2011;48.238;13.948;2022-10-16T07:40:57;108.73;;;8.93;;
3993;SDS011;2011;48.238;13.948;2022-10-16T07:43:24;30.70;;;7.27;;
3993;SDS011;2011;48.238;13.948;2022-10-16T07:45:51;51.50;;;7.23;;
3993;SDS011;2011;48.238;13.948;2022-10-16T07:48:20;92.07;;;8.40;;
3993;SDS011;2011;48.238;13.948;2022-10-16T07:50:47;23.93;;;6.33;;
3993;SDS011;2011;48.238;13.948;2022-10-16T07:53:15;20.40;;;5.77;;
3993;SDS011;2011;48.238;13.948;2022-10-16T07:55:42;40.40;;;7.17;;
3993;SDS011;2011;48.238;13.948;2022-10-16T07:58:10;17.93;;;6.20;;
3993;SDS011;2011;48.238;13.948;2022-10-16T08:00:37;30.63;;;7.50;;
3993;SDS011;2011;48.238;13.948;2022-10-16T08:03:04;11.70;;;6.80;;
3993;SDS011;2011;48.238;13.948;2022-10-16T08:05:31;11.03;;;6.30;;
3993;SDS011;2011;48.238;13.948;2022-10-16T08:07:59;13.40;;;6.23;;
3993;SDS011;2011;48.238;13.948;2022-10-16T08:10:27;19.57;;;7.30;;
3993;SDS011;2011;48.238;13.948;2022-10-16T08:12:55;9.43;;;7.13;;
3993;SDS011;2011;48.238;13.948;2022-10-16T08:15:23;11.00;;;7.03;;
3993;SDS011;2011;48.238;13.948;2022-10-16T08:17:57;23.83;;;7.37;;
3993;SDS011;2011;48.238;13.948;2022-10-16T08:20:25;16.53;;;6.47;;
3993;SDS011;2011;48.238;13.948;2022-10-16T08:22:52;12.93;;;8.10;;
3993;SDS011;2011;48.238;13.948;2022-10-16T08:25:20;15.30;;;7.03;;
3993;SDS011;2011;48.238;13.948;2022-10-16T08:27:47;8.37;;;6.50;;
3993;SDS011;2011;48.238;13.948;2022-10-16T08:30:14;11.57;;;6.90;;
3993;SDS011;2011;48.238;13.948;2022-10-16T08:32:43;10.20;;;7.20;;
3993;SDS011;2011;48.238;13.948;2022-10-16T08:35:10;10.43;;;7.13;;
3993;SDS011;2011;48.238;13.948;2022-10-16T08:37:38;9.50;;;7.70;;
3993;SDS011;2011;48.238;13.948;2022-10-16T08:40:06;8.10;;;6.03;;
3993;SDS011;2011;48.238;13.948;2022-10-16T08:42:45;15.60;;;7.90;;
3993;SDS011;2011;48.238;13.948;2022-10-16T08:45:23;9.77;;;6.83;;
3993;SDS011;2011;48.238;13.948;2022-10-16T08:48:10;26.23;;;8.60;;
3993;SDS011;2011;48.238;13.948;2022-10-16T08:50:45;10.40;;;8.00;;
3993;SDS011;2011;48.238;13.948;2022-10-16T08:53:14;11.40;;;8.70;;
3993;SDS011;2011;48.238;13.948;2022-10-16T08:55:45;9.30;;;6.63;;
3993;SDS011;2011;48.238;13.948;2022-10-16T08:58:16;11.70;;;8.20;;
3993;SDS011;2011;48.238;13.948;2022-10-16T09:00:44;14.23;;;7.73;;
3993;SDS011;2011;48.238;13.948;2022-10-16T09:03:16;8.10;;;6.40;;
3993;SDS011;2011;48.238;13.948;2022-10-16T09:06:03;11.87;;;8.60;;
3993;SDS011;2011;48.238;13.948;2022-10-16T09:08:43;8.53;;;6.93;;
3993;SDS011;2011;48.238;13.948;2022-10-16T09:11:22;9.23;;;5.60;;
3993;SDS011;2011;48.238;13.948;2022-10-16T09:13:59;10.67;;;6.43;;
3993;SDS011;2011;48.238;13.948;2022-10-16T09:16:38;8.43;;;6.70;;
3993;SDS011;2011;48.238;13.948;2022-10-16T09:19:13;12.10;;;6.93;;
3993;SDS011;2011;48.238;13.948;2022-10-16T09:21:45;9.80;;;6.80;;
3993;SDS011;2011;48.238;13.948;2022-10-16T09:24:13;11.97;;;6.33;;
3993;SDS011;2011;48.238;13.948;2022-10-16T09:26:42;9.77;;;6.47;;
3993;SDS011;2011;48.238;13.948;2022-10-16T09:29:10;9.27;;;7.00;;
3993;SDS011;2011;48.238;13.948;2022-10-16T09:31:38;9.20;;;7.00;;
3993;SDS011;2011;48.238;13.948;2022-10-16T09:34:06;14.50;;;6.20;;
3993;SDS011;2011;48.238;13.948;2022-10-16T09:36:49;14.00;;;7.20;;
3993;SDS011;2011;48.238;13.948;2022-10-16T09:39:17;9.97;;;7.10;;
3993;SDS011;2011;48.238;13.948;2022-10-16T09:41:44;13.30;;;7.20;;
3993;SDS011;2011;48.238;13.948;2022-10-16T09:44:18;9.23;;;6.53;;
3993;SDS011;2011;48.238;13.948;2022-10-16T09:46:48;14.40;;;6.90;;
3993;SDS011;2011;48.238;13.948;2022-10-16T09:49:19;15.10;;;6.03;;
3993;SDS011;2011;48.238;13.948;2022-10-16T09:51:49;11.47;;;6.57;;
3993;SDS011;2011;48.238;13.948;2022-10-16T09:54:19;10.17;;;6.77;;
3993;SDS011;2011;48.238;13.948;2022-10-16T09:56:47;19.70;;;9.27;;
3993;SDS011;2011;48.238;13.948;2022-10-16T09:59:18;13.80;;;9.60;;
3993;SDS011;2011;48.238;13.948;2022-10-16T10:01:47;22.73;;;10.50;;
3993;SDS011;2011;48.238;13.948;2022-10-16T10:04:15;12.33;;;9.10;;
3993;SDS011;2011;48.238;13.948;2022-10-16T10:06:44;15.40;;;10.30;;
3993;SDS011;2011;48.238;13.948;2022-10-16T10:09:20;18.50;;;9.53;;
3993;SDS011;2011;48.238;13.948;2022-10-16T10:11:50;14.83;;;9.67;;
3993;SDS011;2011;48.238;13.948;2022-10-16T10:14:26;17.63;;;9.90;;
3993;SDS011;2011;48.238;13.948;2022-10-16T10:17:12;15.50;;;9.63;;
3993;SDS011;2011;48.238;13.948;2022-10-16T10:19:43;19.57;;;11.00;;
3993;SDS011;2011;48.238;13.948;2022-10-16T10:22:17;19.83;;;11.23;;
3993;SDS011;2011;48.238;13.948;2022-10-16T10:24:56;20.43;;;11.40;;
3993;SDS011;2011;48.238;13.948;2022-10-16T10:27:39;20.70;;;12.87;;
3993;SDS011;2011;48.238;13.948;2022-10-16T10:30:19;18.20;;;11.57;;
3993;SDS011;2011;48.238;13.948;2022-10-16T10:32:52;17.07;;;10.53;;
3993;SDS011;2011;48.238;13.948;2022-10-16T10:35:31;23.23;;;11.73;;
3993;SDS011;2011;48.238;13.948;2022-10-16T10:38:12;19.70;;;13.03;;
3993;SDS011;2011;48.238;13.948;2022-10-16T10:40:50;23.20;;;12.43;;
3993;SDS011;2011;48.238;13.948;2022-10-16T10:43:29;22.33;;;12.17;;
3993;SDS011;2011;48.238;13.948;2022-10-16T10:46:08;22.73;;;13.50;;
3993;SDS011;2011;48.238;13.948;2022-10-16T10:48:54;18.07;;;11.07;;
3993;SDS011;2011;48.238;13.948;2022-10-16T10:51:37;21.03;;;11.50;;
3993;SDS011;2011;48.238;13.948;2022-10-16T10:54:11;18.90;;;10.70;;
3993;SDS011;2011;48.238;13.948;2022-10-16T10:56:47;15.43;;;10.83;;
3993;SDS011;2011;48.238;13.948;2022-10-16T10:59:28;24.30;;;9.67;;
3993;SDS011;2011;48.238;13.948;2022-10-16T11:02:09;19.13;;;9.40;;
3993;SDS011;2011;48.238;13.948;2022-10-16T11:07:41;20.17;;;9.97;;
3993;SDS011;2011;48.238;13.948;2022-10-16T11:10:15;15.47;;;9.27;;
3993;SDS011;2011;48.238;13.948;2022-10-16T11:12:47;12.90;;;8.17;;
3993;SDS011;2011;48.238;13.948;2022-10-16T11:15:18;17.03;;;7.90;;
3993;SDS011;2011;48.238;13.948;2022-10-16T11:17:50;15.87;;;7.50;;
3993;SDS011;2011;48.238;13.948;2022-10-16T11:20:21;11.27;;;7.67;;
3993;SDS011;2011;48.238;13.948;2022-10-16T11:22:53;22.97;;;10.37;;
3993;SDS011;2011;48.238;13.948;2022-10-16T11:25:24;14.97;;;9.13;;
3993;SDS011;2011;48.238;13.948;2022-10-16T11:27:57;15.60;;;8.80;;
3993;SDS011;2011;48.238;13.948;2022-10-16T11:30:29;19.13;;;8.73;;
3993;SDS011;2011;48.238;13.948;2022-10-16T11:33:04;23.13;;;9.17;;
3993;SDS011;2011;48.238;13.948;2022-10-16T11:35:51;16.73;;;7.10;;
3993;SDS011;2011;48.238;13.948;2022-10-16T11:38:24;14.90;;;7.43;;
3993;SDS011;2011;48.238;13.948;2022-10-16T11:40:59;13.40;;;8.67;;
3993;SDS011;2011;48.238;13.948;2022-10-16T11:43:32;13.53;;;8.00;;
3993;SDS011;2011;48.238;13.948;2022-10-16T11:46:04;13.97;;;7.33;;
3993;SDS011;2011;48.238;13.948;2022-10-16T11:48:38;13.00;;;6.37;;
3993;SDS011;2011;48.238;13.948;2022-10-16T11:51:11;10.30;;;6.63;;
3993;SDS011;2011;48.238;13.948;2022-10-16T11:53:45;13.20;;;7.47;;
3993;SDS011;2011;48.238;13.948;2022-10-16T11:56:17;11.63;;;6.77;;
3993;SDS011;2011;48.238;13.948;2022-10-16T11:58:50;15.20;;;8.03;;
3993;SDS011;2011;48.238;13.948;2022-10-16T12:01:26;14.30;;;7.00;;
3993;SDS011;2011;48.238;13.948;2022-10-16T12:04:03;11.53;;;6.10;;
3993;SDS011;2011;48.238;13.948;2022-10-16T12:06:40;16.00;;;6.47;;
3993;SDS011;2011;48.238;13.948;2022-10-16T12:09:11;9.60;;;6.20;;
3993;SDS011;2011;48.238;13.948;2022-10-16T12:11:45;11.77;;;7.07;;
3993;SDS011;2011;48.238;13.948;2022-10-16T12:14:21;12.83;;;6.40;;
3993;SDS011;2011;48.238;13.948;2022-10-16T12:17:03;12.87;;;5.40;;
3993;SDS011;2011;48.238;13.948;2022-10-16T12:19:56;15.83;;;5.10;;
3993;SDS011;2011;48.238;13.948;2022-10-16T12:22:25;22.37;;;6.33;;
3993;SDS011;2011;48.238;13.948;2022-10-16T12:24:55;10.73;;;5.27;;
3993;SDS011;2011;48.238;13.948;2022-10-16T12:27:23;10.70;;;5.73;;
3993;SDS011;2011;48.238;13.948;2022-10-16T12:29:56;13.80;;;4.90;;
3993;SDS011;2011;48.238;13.948;2022-10-16T12:32:27;7.90;;;4.93;;
3993;SDS011;2011;48.238;13.948;2022-10-16T12:34:56;8.03;;;2.27;;
3993;SDS011;2011;48.238;13.948;2022-10-16T12:37:25;7.00;;;2.50;;
3993;SDS011;2011;48.238;13.948;2022-10-16T12:39:56;4.10;;;2.10;;
3993;SDS011;2011;48.238;13.948;2022-10-16T12:42:31;7.00;;;1.90;;
3993;SDS011;2011;48.238;13.948;2022-10-16T12:45:01;12.20;;;3.07;;
3993;SDS011;2011;48.238;13.948;2022-10-16T12:47:47;3.73;;;2.03;;
3993;SDS011;2011;48.238;13.948;2022-10-16T12:53:16;5.27;;;1.90;;
3993;SDS011;2011;48.238;13.948;2022-10-16T12:55:47;4.97;;;1.67;;
3993;SDS011;2011;48.238;13.948;2022-10-16T12:58:26;7.30;;;1.67;;
3993;SDS011;2011;48.238;13.948;2022-10-16T13:01:15;5.73;;;1.70;;
3993;SDS011;2011;48.238;13.948;2022-10-16T13:03:56;8.40;;;2.00;;
3993;SDS011;2011;48.238;13.948;2022-10-16T13:06:33;3.53;;;2.00;;
3993;SDS011;2011;48.238;13.948;2022-10-16T13:09:14;10.70;;;2.70;;
3993;SDS011;2011;48.238;13.948;2022-10-16T13:11:51;12.43;;;2.97;;
3993;SDS011;2011;48.238;13.948;2022-10-16T13:14:38;6.67;;;3.60;;
3993;SDS011;2011;48.238;13.948;2022-10-16T13:17:27;12.20;;;4.90;;
3993;SDS011;2011;48.238;13.948;2022-10-16T13:20:05;15.20;;;4.50;;
3993;SDS011;2011;48.238;13.948;2022-10-16T13:22:45;18.60;;;5.40;;
3993;SDS011;2011;48.238;13.948;2022-10-16T13:25:22;10.50;;;4.80;;
3993;SDS011;2011;48.238;13.948;2022-10-16T13:27:55;8.53;;;4.73;;
3993;SDS011;2011;48.238;13.948;2022-10-16T13:30:25;10.73;;;4.03;;
3993;SDS011;2011;48.238;13.948;2022-10-16T13:33:00;13.00;;;3.70;;
3993;SDS011;2011;48.238;13.948;2022-10-16T13:35:29;4.60;;;2.27;;
3993;SDS011;2011;48.238;13.948;2022-10-16T13:38:11;4.30;;;1.70;;
3993;SDS011;2011;48.238;13.948;2022-10-16T13:40:50;2.97;;;1.40;;
3993;SDS011;2011;48.238;13.948;2022-10-16T13:43:19;3.60;;;1.53;;
3993;SDS011;2011;48.238;13.948;2022-10-16T13:45:55;3.23;;;1.50;;
3993;SDS011;2011;48.238;13.948;2022-10-16T13:48:25;10.87;;;1.70;;
3993;SDS011;2011;48.238;13.948;2022-10-16T13:50:59;3.13;;;1.57;;
3993;SDS011;2011;48.238;13.948;2022-10-16T13:53:31;6.20;;;1.93;;
3993;SDS011;2011;48.238;13.948;2022-10-16T13:55:59;4.30;;;1.80;;
3993;SDS011;2011;48.238;13.948;2022-10-16T13:58:28;5.37;;;2.00;;
3993;SDS011;2011;48.238;13.948;2022-10-16T14:00:56;5.73;;;1.50;;
3993;SDS011;2011;48.238;13.948;2022-10-16T14:03:26;3.40;;;1.93;;
3993;SDS011;2011;48.238;13.948;2022-10-16T14:05:54;7.63;;;1.73;;
3993;SDS011;2011;48.238;13.948;2022-10-16T14:08:24;3.63;;;1.40;;
3993;SDS011;2011;48.238;13.948;2022-10-16T14:10:53;5.23;;;1.70;;
3993;SDS011;2011;48.238;13.948;2022-10-16T14:13:25;12.17;;;2.27;;
3993;SDS011;2011;48.238;13.948;2022-10-16T14:15:56;4.77;;;2.03;;
3993;SDS011;2011;48.238;13.948;2022-10-16T14:18:26;18.33;;;2.07;;
3993;SDS011;2011;48.238;13.948;2022-10-16T14:20:54;8.50;;;2.10;;
3993;SDS011;2011;48.238;13.948;2022-10-16T14:23:22;3.30;;;1.70;;
3993;SDS011;2011;48.238;13.948;2022-10-16T14:26:05;4.17;;;1.70;;
3993;SDS011;2011;48.238;13.948;2022-10-16T14:28:42;5.70;;;1.70;;
3993;SDS011;2011;48.238;13.948;2022-10-16T14:31:27;5.90;;;1.60;;
3993;SDS011;2011;48.238;13.948;2022-10-16T14:33:57;6.70;;;2.07;;
3993;SDS011;2011;48.238;13.948;2022-10-16T14:36:24;5.67;;;1.47;;
3993;SDS011;2011;48.238;13.948;2022-10-16T14:39:00;7.07;;;1.60;;
3993;SDS011;2011;48.238;13.948;2022-10-16T14:41:29;4.17;;;1.40;;
3993;SDS011;2011;48.238;13.948;2022-10-16T14:44:00;8.37;;;2.00;;
3993;SDS011;2011;48.238;13.948;2022-10-16T14:46:30;8.33;;;1.67;;
3993;SDS011;2011;48.238;13.948;2022-10-16T14:49:03;11.80;;;1.90;;
3993;SDS011;2011;48.238;13.948;2022-10-16T14:51:42;7.83;;;1.60;;
3993;SDS011;2011;48.238;13.948;2022-10-16T14:54:10;6.27;;;1.97;;
3993;SDS011;2011;48.238;13.948;2022-10-16T14:56:42;3.80;;;1.60;;
3993;SDS011;2011;48.238;13.948;2022-10-16T14:59:13;7.83;;;1.80;;
3993;SDS011;2011;48.238;13.948;2022-10-16T15:01:43;3.43;;;1.73;;
3993;SDS011;2011;48.238;13.948;2022-10-16T15:04:13;6.00;;;1.70;;
3993;SDS011;2011;48.238;13.948;2022-10-16T15:06:41;5.20;;;1.53;;